Time;durP1;ratioP1;P1;durP2;ratioP2;P2;SDS_P1;SDS_P2;PMS_P1;PMS_P2;Temp;Humidity;BMP_temperature;BMP_pressure;BME280_temperature;BME280_humidity;BME280_pressure;Samples;Min_cycle;Max_cycle;Signal;HPM_P1;HPM_P2
2022/12/24 00:01:57;;;;;;;2.00;1.00;;;12.10;91.70;;;;;;5134873;27;20517;-66
2022/12/24 00:04:24;;;;;;;1.60;0.63;;;12.10;91.60;;;;;;5134664;27;20494;-65
2022/12/24 00:06:51;;;;;;;2.83;0.80;;;12.00;91.70;;;;;;5134828;27;20441;-64
2022/12/24 00:09:18;;;;;;;2.07;0.77;;;12.00;91.60;;;;;;5134245;27;20988;-64
2022/12/24 00:11:47;;;;;;;1.67;0.67;;;12.00;91.60;;;;;;5134497;27;20923;-65
2022/12/24 00:14:14;;;;;;;1.90;0.80;;;12.00;91.60;;;;;;5133236;27;21274;-64
2022/12/24 00:16:41;;;;;;;2.07;0.70;;;12.00;91.60;;;;;;5134397;27;20434;-64
2022/12/24 00:19:08;;;;;;;2.00;0.80;;;12.10;91.70;;;;;;5134170;27;20471;-64
2022/12/24 00:21:35;;;;;;;1.93;0.73;;;12.00;91.60;;;;;;5134400;27;20441;-64
2022/12/24 00:24:04;;;;;;;2.70;0.80;;;12.10;91.80;;;;;;5133919;27;20960;-65
2022/12/24 00:26:31;;;;;;;2.23;1.07;;;12.00;91.60;;;;;;5134500;27;20433;-64
2022/12/24 00:29:00;;;;;;;2.33;0.83;;;12.10;91.80;;;;;;5133935;27;20524;-64
2022/12/24 00:31:27;;;;;;;2.43;0.97;;;12.00;91.60;;;;;;5133738;27;20433;-64
2022/12/24 00:33:55;;;;;;;2.23;1.00;;;12.00;91.40;;;;;;5133840;27;20473;-64
2022/12/24 00:36:22;;;;;;;2.30;0.80;;;12.00;91.30;;;;;;5134081;27;20452;-64
2022/12/24 00:38:49;;;;;;;2.10;1.03;;;12.00;91.40;;;;;;5133699;27;20472;-65
2022/12/24 00:41:27;;;;;;;3.00;0.80;;;12.00;91.30;;;;;;5134184;27;20433;-64
2022/12/24 00:43:56;;;;;;;4.27;0.70;;;12.00;91.10;;;;;;5133436;27;20441;-63
2022/12/24 00:46:29;;;;;;;1.70;0.70;;;12.00;91.10;;;;;;5134072;27;20437;-63
2022/12/24 00:48:56;;;;;;;2.00;0.70;;;12.00;91.10;;;;;;5133641;27;20895;-63
2022/12/24 00:51:24;;;;;;;2.47;0.90;;;12.00;91.00;;;;;;5133994;27;20433;-63
2022/12/24 00:53:52;;;;;;;1.77;0.77;;;12.10;91.30;;;;;;5133151;27;20998;-63
2022/12/24 00:56:20;;;;;;;1.70;0.67;;;12.10;91.10;;;;;;5133343;27;20991;-63
2022/12/24 00:58:47;;;;;;;1.90;0.80;;;12.10;91.20;;;;;;5132784;27;20444;-64
2022/12/24 01:01:15;;;;;;;2.90;1.07;;;12.00;91.10;;;;;;5132778;27;20438;-63
2022/12/24 01:03:43;;;;;;;2.80;0.90;;;12.10;91.20;;;;;;5133596;27;20437;-63
2022/12/24 01:06:12;;;;;;;2.43;0.80;;;12.10;91.30;;;;;;5133192;27;20800;-63
2022/12/24 01:08:40;;;;;;;2.57;0.80;;;12.10;91.20;;;;;;5132991;27;20915;-63
2022/12/24 01:11:08;;;;;;;2.20;0.80;;;12.10;91.70;;;;;;5133094;27;20444;-63
2022/12/24 01:13:36;;;;;;;5.83;1.10;;;12.00;91.10;;;;;;5133273;27;20877;-63
2022/12/24 01:16:04;;;;;;;1.80;0.80;;;12.00;91.10;;;;;;5133003;27;20494;-64
2022/12/24 01:18:31;;;;;;;2.10;0.90;;;12.00;91.10;;;;;;5133397;27;20493;-63
2022/12/24 01:21:02;;;;;;;2.87;1.17;;;12.10;91.30;;;;;;5132923;27;20486;-64
2022/12/24 01:23:30;;;;;;;1.70;0.70;;;12.10;91.20;;;;;;5133414;27;20493;-64
2022/12/24 01:26:04;;;;;;;2.00;0.80;;;12.00;91.20;;;;;;5133021;27;20843;-64
2022/12/24 01:28:33;;;;;;;2.20;0.90;;;12.10;91.20;;;;;;5133265;27;20462;-63
2022/12/24 01:31:00;;;;;;;2.67;0.90;;;12.00;91.20;;;;;;5132894;27;20799;-64
2022/12/24 01:33:28;;;;;;;2.77;0.87;;;12.10;91.20;;;;;;5132855;28;20468;-63
2022/12/24 01:35:56;;;;;;;3.20;1.00;;;12.10;91.40;;;;;;5132784;28;20487;-64
2022/12/24 01:38:24;;;;;;;1.70;0.70;;;12.00;91.30;;;;;;5133278;27;20954;-63
2022/12/24 01:43:36;;;;;;;2.47;1.00;;;12.00;91.50;;;;;;5132917;27;20421;-64
2022/12/24 01:46:06;;;;;;;3.00;1.03;;;12.00;91.50;;;;;;5132731;27;20919;-64
2022/12/24 01:48:37;;;;;;;2.80;1.03;;;12.00;91.60;;;;;;5133358;28;20444;-63
2022/12/24 01:51:12;;;;;;;1.60;0.80;;;12.10;91.70;;;;;;5132738;27;20430;-64
2022/12/24 01:53:45;;;;;;;3.40;0.80;;;12.00;91.80;;;;;;5133178;27;20527;-63
2022/12/24 01:56:13;;;;;;;2.67;1.00;;;12.00;91.80;;;;;;5132765;27;20437;-63
2022/12/24 01:58:43;;;;;;;2.67;1.17;;;12.00;91.90;;;;;;5132531;27;20440;-63
2022/12/24 02:01:10;;;;;;;2.07;1.00;;;12.00;92.00;;;;;;5132785;27;20433;-63
2022/12/24 02:03:37;;;;;;;3.13;0.80;;;12.00;91.90;;;;;;5133079;27;20439;-63
2022/12/24 02:06:05;;;;;;;2.47;0.83;;;12.00;91.90;;;;;;5132376;27;20433;-63
2022/12/24 02:08:39;;;;;;;5.40;1.10;;;12.00;91.80;;;;;;5132988;27;20426;-63
2022/12/24 02:11:13;;;;;;;3.50;0.97;;;12.00;91.70;;;;;;5132409;27;20537;-67
2022/12/24 02:13:42;;;;;;;2.10;0.90;;;11.90;91.60;;;;;;5132601;28;20564;-63
2022/12/24 02:16:17;;;;;;;2.13;0.87;;;11.90;91.50;;;;;;5132542;28;20432;-63
2022/12/24 02:18:49;;;;;;;2.20;0.87;;;12.00;91.40;;;;;;5132484;27;20470;-63
2022/12/24 02:21:46;;;;;;;2.10;0.73;;;11.90;91.30;;;;;;5132678;27;20445;-64
2022/12/24 02:24:38;;;;;;;1.77;0.70;;;11.90;91.30;;;;;;5132768;27;20516;-63
2022/12/24 02:27:34;;;;;;;3.03;1.20;;;11.90;90.90;;;;;;5112465;28;20515;-63
2022/12/24 02:30:20;;;;;;;1.80;0.80;;;11.90;90.80;;;;;;5116108;27;20792;-63
2022/12/24 02:33:15;;;;;;;2.77;0.90;;;11.90;90.50;;;;;;5132538;27;20429;-63
2022/12/24 02:35:50;;;;;;;1.63;0.80;;;11.90;90.10;;;;;;5130102;27;20484;-63
2022/12/24 02:38:24;;;;;;;3.70;0.70;;;11.90;90.10;;;;;;5134436;27;20497;-63
2022/12/24 02:40:55;;;;;;;3.40;0.80;;;11.90;89.70;;;;;;5136303;27;20449;-64
2022/12/24 02:43:26;;;;;;;3.87;0.90;;;11.90;89.90;;;;;;5136149;27;20445;-64
2022/12/24 02:45:59;;;;;;;3.40;1.10;;;12.00;89.70;;;;;;5136460;27;20747;-62
2022/12/24 02:48:27;;;;;;;1.60;0.90;;;12.00;90.10;;;;;;5136183;27;20429;-63
2022/12/24 02:50:57;;;;;;;3.40;1.10;;;12.00;89.60;;;;;;5136016;27;20436;-63
2022/12/24 02:53:24;;;;;;;5.07;1.00;;;12.00;89.90;;;;;;5135537;27;20448;-63
2022/12/24 02:56:10;;;;;;;2.47;0.70;;;12.00;90.10;;;;;;5136055;27;20477;-63
2022/12/24 02:58:48;;;;;;;2.17;0.97;;;12.00;90.50;;;;;;5135196;27;20433;-63
2022/12/24 03:01:25;;;;;;;3.70;1.00;;;11.90;90.20;;;;;;5136023;27;20516;-63
2022/12/24 03:04:07;;;;;;;1.93;0.87;;;11.90;90.30;;;;;;5135461;27;20445;-63
2022/12/24 03:06:44;;;;;;;2.40;0.90;;;12.00;90.40;;;;;;5135564;27;20444;-63
2022/12/24 03:09:19;;;;;;;2.30;0.83;;;12.00;90.30;;;;;;5135384;27;20429;-63
2022/12/24 03:11:55;;;;;;;2.63;0.77;;;11.90;90.30;;;;;;5135770;27;20486;-63
2022/12/24 03:14:23;;;;;;;4.87;1.30;;;11.90;90.20;;;;;;5135584;27;20476;-63
2022/12/24 03:16:52;;;;;;;2.00;1.10;;;11.90;90.10;;;;;;5135553;27;20434;-65
2022/12/24 03:19:21;;;;;;;1.80;0.73;;;11.90;90.10;;;;;;5135078;27;20873;-63
2022/12/24 03:21:49;;;;;;;1.93;0.80;;;11.90;90.10;;;;;;5135787;27;20839;-64
2022/12/24 03:24:16;;;;;;;2.47;1.00;;;11.90;90.10;;;;;;5135213;27;20837;-63
2022/12/24 03:26:45;;;;;;;3.97;0.97;;;11.90;90.10;;;;;;5135472;27;20437;-63
2022/12/24 03:29:13;;;;;;;3.47;0.97;;;11.90;90.00;;;;;;5134741;27;20490;-63
2022/12/24 03:31:42;;;;;;;2.33;1.00;;;11.90;89.70;;;;;;5135466;27;20438;-63
2022/12/24 03:34:12;;;;;;;2.00;0.70;;;11.90;89.50;;;;;;5134985;27;20469;-63
2022/12/24 03:36:39;;;;;;;2.10;0.80;;;11.90;89.60;;;;;;5135473;27;20508;-63
2022/12/24 03:39:06;;;;;;;2.00;0.80;;;11.90;89.30;;;;;;5134589;27;21005;-63
2022/12/24 03:41:34;;;;;;;2.10;0.90;;;11.90;89.30;;;;;;5135030;27;20938;-64
2022/12/24 03:44:01;;;;;;;1.60;0.70;;;11.90;88.30;;;;;;5134756;27;20943;-63
2022/12/24 03:46:29;;;;;;;1.80;0.80;;;11.90;88.00;;;;;;5135075;27;20441;-66
2022/12/24 03:48:57;;;;;;;2.20;0.80;;;11.90;87.40;;;;;;5133730;27;20433;-62
2022/12/24 03:51:27;;;;;;;1.60;0.73;;;11.80;87.10;;;;;;5135133;27;20430;-63
2022/12/24 03:53:56;;;;;;;1.83;0.70;;;11.90;87.30;;;;;;5134584;27;20421;-62
2022/12/24 03:56:24;;;;;;;1.80;0.70;;;11.90;87.00;;;;;;5134160;27;20991;-63
2022/12/24 03:58:51;;;;;;;1.70;0.60;;;11.90;86.80;;;;;;5134738;27;20920;-63
2022/12/24 04:01:19;;;;;;;2.47;0.93;;;11.80;86.70;;;;;;5134384;27;20491;-63
2022/12/24 04:03:46;;;;;;;5.10;1.17;;;11.80;87.00;;;;;;5134993;27;20433;-63
2022/12/24 04:06:16;;;;;;;1.70;0.70;;;11.90;87.30;;;;;;5134309;27;20432;-65
2022/12/24 04:08:45;;;;;;;1.90;0.70;;;11.90;86.70;;;;;;5114141;28;20438;-62
2022/12/24 04:11:14;;;;;;;2.43;0.80;;;12.00;86.90;;;;;;5114134;28;20438;-63
2022/12/24 04:13:41;;;;;;;3.97;0.60;;;11.90;86.70;;;;;;5134067;27;20445;-63
2022/12/24 04:16:10;;;;;;;1.83;0.70;;;11.90;86.50;;;;;;5134461;27;20485;-63
2022/12/24 04:18:38;;;;;;;1.83;0.60;;;11.90;86.50;;;;;;5134128;27;20440;-64
2022/12/24 04:21:06;;;;;;;2.60;1.10;;;12.00;86.60;;;;;;5134611;27;20525;-64
2022/12/24 04:23:37;;;;;;;3.93;0.70;;;11.90;85.80;;;;;;5134131;27;20438;-64
2022/12/24 04:26:08;;;;;;;3.20;0.80;;;11.90;85.40;;;;;;5134453;27;20774;-64
2022/12/24 04:28:36;;;;;;;1.80;0.70;;;11.90;84.30;;;;;;5133961;27;20774;-63
2022/12/24 04:31:05;;;;;;;1.80;0.60;;;11.90;84.00;;;;;;5134233;27;20447;-62
2022/12/24 04:33:32;;;;;;;3.70;1.40;;;11.80;82.80;;;;;;5134090;27;20441;-63
2022/12/24 04:36:00;;;;;;;1.60;0.53;;;11.80;81.90;;;;;;5133975;27;20545;-63
2022/12/24 04:38:27;;;;;;;1.60;0.60;;;11.90;81.80;;;;;;5133967;27;20473;-62
2022/12/24 04:40:59;;;;;;;1.70;0.80;;;11.90;80.70;;;;;;5134421;27;20469;-63
2022/12/24 04:43:29;;;;;;;2.60;0.97;;;11.90;80.00;;;;;;5133584;27;20448;-63
2022/12/24 04:45:57;;;;;;;2.20;0.90;;;11.90;78.70;;;;;;5133986;27;20464;-63
2022/12/24 04:48:24;;;;;;;2.00;0.80;;;11.80;79.00;;;;;;5134122;27;20452;-63
2022/12/24 04:50:51;;;;;;;1.80;0.70;;;11.90;77.90;;;;;;5133552;27;20437;-62
2022/12/24 04:53:18;;;;;;;1.97;0.80;;;11.90;77.30;;;;;;5134090;27;20486;-63
2022/12/24 04:55:46;;;;;;;1.50;0.60;;;11.80;76.80;;;;;;5133687;27;20508;-63
2022/12/24 04:58:14;;;;;;;1.80;0.53;;;11.80;75.10;;;;;;5133809;27;20444;-62
2022/12/24 05:00:42;;;;;;;1.50;0.50;;;11.80;75.00;;;;;;5133054;27;20440;-63
2022/12/24 05:03:09;;;;;;;2.73;0.90;;;11.70;73.30;;;;;;5133990;27;20482;-63
2022/12/24 05:05:37;;;;;;;2.00;0.60;;;11.70;73.50;;;;;;5133215;27;20490;-64
2022/12/24 05:08:05;;;;;;;1.50;0.60;;;11.70;71.20;;;;;;5133248;27;20434;-63
2022/12/24 05:10:32;;;;;;;1.50;0.50;;;11.60;70.90;;;;;;5133954;27;20444;-63
2022/12/24 05:12:59;;;;;;;1.63;0.60;;;11.60;71.50;;;;;;5133476;27;20465;-63
2022/12/24 05:15:26;;;;;;;1.60;0.70;;;11.50;71.50;;;;;;5133587;27;20525;-63
2022/12/24 05:17:57;;;;;;;1.50;0.53;;;11.60;71.90;;;;;;5133259;27;20444;-63
2022/12/24 05:20:24;;;;;;;1.70;0.60;;;11.50;72.00;;;;;;5133694;27;20486;-63
2022/12/24 05:28:24;;;;;;;2.17;0.80;;;11.40;72.00;;;;;;5133487;27;20440;-63
2022/12/24 05:30:51;;;;;;;2.37;0.70;;;11.30;72.40;;;;;;5133430;27;20429;-63
2022/12/24 05:33:19;;;;;;;1.60;0.70;;;11.30;72.70;;;;;;5133198;28;20433;-63
2022/12/24 05:35:47;;;;;;;1.50;0.60;;;11.20;72.90;;;;;;5133270;27;20824;-63
2022/12/24 05:38:14;;;;;;;1.70;0.70;;;11.20;73.00;;;;;;5133045;28;20441;-63
2022/12/24 05:40:41;;;;;;;1.80;0.80;;;11.20;73.40;;;;;;5133301;27;20433;-63
2022/12/24 05:43:08;;;;;;;1.50;0.63;;;11.20;73.10;;;;;;5133131;27;20183;-62
2022/12/24 05:45:36;;;;;;;1.57;0.60;;;11.20;72.90;;;;;;5133121;28;20479;-63
2022/12/24 05:48:03;;;;;;;1.53;0.63;;;11.20;73.20;;;;;;5133089;28;20470;-63
2022/12/24 05:50:32;;;;;;;1.77;0.70;;;11.20;73.50;;;;;;5133609;27;20781;-64
2022/12/24 05:52:59;;;;;;;2.87;1.07;;;11.10;72.40;;;;;;5132890;27;20948;-63
2022/12/24 05:55:27;;;;;;;2.37;0.80;;;11.10;72.10;;;;;;5133503;27;20480;-63
2022/12/24 05:57:54;;;;;;;1.80;0.70;;;11.00;72.70;;;;;;5132910;27;20473;-66
2022/12/24 06:00:21;;;;;;;2.27;0.70;;;11.10;72.80;;;;;;5133091;28;20486;-63
2022/12/24 06:02:48;;;;;;;1.93;0.80;;;11.10;71.70;;;;;;5132942;27;20447;-63
2022/12/24 06:05:15;;;;;;;1.80;0.70;;;11.00;72.00;;;;;;5133491;27;20482;-63
2022/12/24 06:07:44;;;;;;;1.70;0.90;;;11.00;72.10;;;;;;5132475;27;20429;-63
2022/12/24 06:10:11;;;;;;;1.57;0.70;;;10.90;72.10;;;;;;5133453;27;20813;-63
2022/12/24 06:12:38;;;;;;;1.65;0.80;;;11.00;72.70;;;;;;5134250;27;20490;-63
2022/12/24 06:15:07;;;;;;;1.70;0.83;;;11.00;72.50;;;;;;5136765;27;20294;-63
2022/12/24 06:17:34;;;;;;;2.00;0.77;;;11.00;72.10;;;;;;5136842;27;20456;-63
2022/12/24 06:20:01;;;;;;;1.70;0.70;;;11.00;71.80;;;;;;5137063;27;20520;-63
2022/12/24 06:22:28;;;;;;;3.43;1.10;;;11.00;71.60;;;;;;5136647;27;20486;-63
2022/12/24 06:24:57;;;;;;;2.00;0.70;;;11.00;71.50;;;;;;5136857;27;20433;-63
2022/12/24 06:27:24;;;;;;;1.80;0.70;;;11.00;70.80;;;;;;5136572;27;20443;-63
2022/12/24 06:29:52;;;;;;;1.70;0.80;;;11.00;70.70;;;;;;5136700;27;20437;-63
2022/12/24 06:32:20;;;;;;;1.97;0.77;;;11.00;70.90;;;;;;5136730;27;20461;-63
2022/12/24 06:34:47;;;;;;;2.10;0.83;;;11.00;70.90;;;;;;5136692;27;20464;-63
2022/12/24 06:37:17;;;;;;;1.70;0.70;;;11.00;70.90;;;;;;5135908;27;20518;-63
2022/12/24 06:39:45;;;;;;;3.40;0.70;;;10.90;70.10;;;;;;5136807;27;20433;-63
2022/12/24 06:42:14;;;;;;;2.43;0.60;;;10.90;70.00;;;;;;5136044;27;20440;-63
2022/12/24 06:44:41;;;;;;;1.63;0.60;;;10.90;69.10;;;;;;5136191;27;20440;-63
2022/12/24 06:47:08;;;;;;;1.90;0.87;;;10.80;69.60;;;;;;5136146;27;20433;-63
2022/12/24 06:49:35;;;;;;;2.00;0.70;;;10.80;69.70;;;;;;5136423;27;20433;-63
2022/12/24 06:52:02;;;;;;;2.73;1.13;;;10.80;69.60;;;;;;5134960;27;20433;-64
2022/12/24 06:54:29;;;;;;;1.77;0.60;;;10.80;69.60;;;;;;5132013;27;20935;-63
2022/12/24 06:56:57;;;;;;;1.80;0.80;;;10.80;68.90;;;;;;5134418;27;20612;-63
2022/12/24 06:59:26;;;;;;;2.03;0.83;;;10.70;68.60;;;;;;5134456;27;20486;-63
2022/12/24 07:01:52;;;;;;;2.60;1.17;;;10.70;68.30;;;;;;5130087;27;20445;-63
2022/12/24 07:04:20;;;;;;;2.03;1.00;;;10.60;68.30;;;;;;5133408;27;20464;-63
2022/12/24 07:06:48;;;;;;;2.05;0.88;;;10.50;68.60;;;;;;5134034;27;20223;-64
2022/12/24 07:09:15;;;;;;;1.77;1.00;;;10.50;69.10;;;;;;5134217;27;20706;-64
2022/12/24 07:11:42;;;;;;;1.80;0.80;;;10.50;69.40;;;;;;5133946;27;20188;-63
2022/12/24 07:14:10;;;;;;;3.07;0.70;;;10.50;69.40;;;;;;5131479;27;20441;-66
2022/12/24 07:16:38;;;;;;;1.65;0.65;;;10.50;69.40;;;;;;5133512;27;21068;-63
2022/12/24 07:19:06;;;;;;;1.80;0.90;;;10.50;69.70;;;;;;5133812;27;20721;-64
2022/12/24 07:21:33;;;;;;;1.67;0.60;;;10.50;69.20;;;;;;5133955;27;20245;-62
2022/12/24 07:24:00;;;;;;;1.90;0.70;;;10.40;68.80;;;;;;5134197;27;20848;-63
2022/12/24 07:26:28;;;;;;;3.70;0.90;;;10.30;69.10;;;;;;5133723;27;20433;-64
2022/12/24 07:28:55;;;;;;;2.20;1.08;;;10.30;69.20;;;;;;5133766;27;20707;-63
2022/12/24 07:31:22;;;;;;;1.80;0.80;;;10.30;69.80;;;;;;5134215;27;20195;-63
2022/12/24 07:33:51;;;;;;;3.90;1.45;;;10.30;69.90;;;;;;5133834;27;20437;-63
2022/12/24 07:36:20;;;;;;;1.70;0.80;;;10.30;69.40;;;;;;5133465;27;20241;-64
2022/12/24 07:38:48;;;;;;;2.20;0.80;;;10.20;69.30;;;;;;5133617;27;20188;-63
2022/12/24 07:41:15;;;;;;;2.00;0.73;;;10.20;69.40;;;;;;5133799;27;20477;-63
2022/12/24 07:43:42;;;;;;;2.40;1.00;;;10.10;69.40;;;;;;5133716;27;20187;-63
2022/12/24 07:46:09;;;;;;;2.72;1.10;;;10.10;70.10;;;;;;5133300;27;20279;-64
2022/12/24 07:48:36;;;;;;;1.98;0.82;;;10.10;70.30;;;;;;5133425;27;20184;-63
2022/12/24 07:51:05;;;;;;;1.70;0.70;;;10.10;71.00;;;;;;5133119;27;20659;-63
2022/12/24 07:53:33;;;;;;;2.20;1.25;;;10.10;70.90;;;;;;5133810;27;20677;-63
2022/12/24 07:56:01;;;;;;;1.90;0.85;;;10.10;71.00;;;;;;5132554;27;20268;-64
2022/12/24 07:58:28;;;;;;;1.90;0.75;;;10.10;71.30;;;;;;5132825;27;20274;-63
2022/12/24 08:00:57;;;;;;;1.50;0.50;;;10.10;71.10;;;;;;5133056;27;20184;-62
2022/12/24 08:03:25;;;;;;;1.75;0.70;;;10.10;71.40;;;;;;5128334;27;20550;-64
2022/12/24 08:05:52;;;;;;;2.10;0.90;;;10.10;70.60;;;;;;5130259;27;20545;-65
2022/12/24 08:08:21;;;;;;;2.28;0.70;;;10.10;70.50;;;;;;5130496;27;20651;-66
2022/12/24 08:10:48;;;;;;;3.20;1.10;;;10.10;70.80;;;;;;5130222;27;20677;-62
2022/12/24 08:13:16;;;;;;;2.00;0.70;;;10.10;70.90;;;;;;5130934;27;20270;-63
2022/12/24 08:15:44;;;;;;;1.98;0.80;;;10.20;71.00;;;;;;5129603;27;20709;-62
2022/12/24 08:18:12;;;;;;;2.00;0.70;;;10.20;70.10;;;;;;5130916;27;20192;-63
2022/12/24 08:20:40;;;;;;;2.08;0.80;;;10.30;70.70;;;;;;5130109;27;20625;-63
2022/12/24 08:23:08;;;;;;;1.90;0.75;;;10.30;70.10;;;;;;5130560;27;20208;-63
2022/12/24 08:25:37;;;;;;;2.88;0.90;;;10.30;70.00;;;;;;5129786;27;20192;-65
2022/12/24 08:28:05;;;;;;;2.10;1.15;;;10.30;69.30;;;;;;5129950;27;20602;-64
2022/12/24 08:30:32;;;;;;;2.00;1.00;;;10.20;69.80;;;;;;5130138;27;20191;-63
2022/12/24 08:32:59;;;;;;;1.50;0.60;;;10.20;69.40;;;;;;5131401;27;20195;-63
2022/12/24 08:35:27;;;;;;;1.98;0.82;;;10.20;69.30;;;;;;5129373;27;20722;-62
2022/12/24 08:37:54;;;;;;;4.13;1.02;;;10.10;69.40;;;;;;5130535;27;20278;-63
2022/12/24 08:40:21;;;;;;;2.40;0.90;;;10.20;69.20;;;;;;5131438;27;20195;-63
2022/12/24 08:42:50;;;;;;;2.40;1.15;;;10.20;69.40;;;;;;5131670;27;20184;-63
2022/12/24 08:45:17;;;;;;;2.30;0.90;;;10.10;68.90;;;;;;5132687;27;20357;-63
2022/12/24 08:47:44;;;;;;;2.92;1.17;;;10.10;68.60;;;;;;5132514;27;20279;-63
2022/12/24 08:50:12;;;;;;;1.70;0.70;;;10.10;69.10;;;;;;5131670;27;20183;-63
2022/12/24 08:52:39;;;;;;;2.03;0.85;;;10.10;69.00;;;;;;5132371;27;20244;-63
2022/12/24 08:55:07;;;;;;;5.35;0.90;;;10.10;69.20;;;;;;5132652;27;20282;-63
2022/12/24 08:57:35;;;;;;;4.00;0.95;;;10.10;69.60;;;;;;5132776;27;20223;-64
2022/12/24 09:00:05;;;;;;;3.20;1.08;;;10.10;69.40;;;;;;5127415;27;20200;-63
2022/12/24 09:02:32;;;;;;;2.17;0.75;;;10.20;68.80;;;;;;5132462;27;20195;-63
2022/12/24 09:04:59;;;;;;;1.90;0.82;;;10.30;69.40;;;;;;5132524;27;20199;-63
2022/12/24 09:07:26;;;;;;;7.22;0.88;;;10.30;68.80;;;;;;5132457;27;20249;-63
2022/12/24 09:09:53;;;;;;;2.08;0.90;;;10.30;68.50;;;;;;5126431;27;20221;-63
2022/12/24 09:12:20;;;;;;;2.15;0.80;;;10.30;68.70;;;;;;5130803;27;20753;-63
2022/12/24 09:14:47;;;;;;;4.43;1.85;;;10.30;68.00;;;;;;5131203;27;20657;-64
2022/12/24 09:17:15;;;;;;;1.92;0.95;;;10.40;68.60;;;;;;5130896;27;20219;-64
2022/12/24 09:19:42;;;;;;;4.45;1.73;;;10.40;68.80;;;;;;5132016;27;20522;-63
2022/12/24 09:22:11;;;;;;;3.25;1.95;;;10.40;67.90;;;;;;5131885;27;20244;-63
2022/12/24 09:24:38;;;;;;;2.77;1.70;;;10.50;68.30;;;;;;5131610;27;20595;-63
2022/12/24 09:27:05;;;;;;;5.13;2.87;;;10.50;67.20;;;;;;5131002;27;20581;-63
2022/12/24 09:29:32;;;;;;;3.80;2.83;;;10.60;67.20;;;;;;5131306;27;20520;-64
2022/12/24 09:32:00;;;;;;;7.97;4.03;;;10.70;66.80;;;;;;5130603;27;20868;-63
2022/12/24 09:34:28;;;;;;;7.00;3.90;;;10.70;65.80;;;;;;5131892;27;20460;-63
2022/12/24 09:36:55;;;;;;;14.20;6.13;;;10.80;66.30;;;;;;5130849;27;21053;-63
2022/12/24 09:39:22;;;;;;;9.67;5.13;;;10.90;65.60;;;;;;5131669;27;20486;-63
2022/12/24 09:41:58;;;;;;;10.37;5.87;;;10.90;65.10;;;;;;5131324;27;20524;-63
2022/12/24 09:44:36;;;;;;;9.63;5.70;;;11.00;65.40;;;;;;5131091;28;20437;-62
2022/12/24 09:47:10;;;;;;;42.30;22.17;;;11.20;64.50;;;;;;5131610;27;20523;-64
2022/12/24 09:49:43;;;;;;;6.07;3.33;;;11.30;64.10;;;;;;5135186;27;20520;-63
2022/12/24 09:52:20;;;;;;;10.43;7.40;;;11.40;62.60;;;;;;5136024;27;20524;-63
2022/12/24 09:54:56;;;;;;;15.93;10.03;;;11.60;64.00;;;;;;5134580;27;20454;-63
2022/12/24 09:57:29;;;;;;;6.90;3.90;;;11.70;61.40;;;;;;5135749;27;20508;-63
2022/12/24 09:59:57;;;;;;;3.10;1.50;;;12.00;62.90;;;;;;5134539;27;20473;-63
2022/12/24 10:02:24;;;;;;;3.77;1.57;;;12.20;59.40;;;;;;5135567;27;20477;-63
2022/12/24 10:04:52;;;;;;;30.13;14.30;;;12.20;60.50;;;;;;5135328;27;20480;-63
2022/12/24 10:07:29;;;;;;;4.87;2.80;;;12.30;59.40;;;;;;5135516;27;20465;-63
2022/12/24 10:10:03;;;;;;;2.63;1.50;;;12.30;58.80;;;;;;5134734;27;20441;-63
2022/12/24 10:12:39;;;;;;;2.63;1.20;;;12.20;58.60;;;;;;5135933;27;20425;-63
2022/12/24 10:15:16;;;;;;;2.20;1.03;;;12.20;58.50;;;;;;5132071;27;20468;-65
2022/12/24 10:17:53;;;;;;;4.90;0.93;;;12.10;58.90;;;;;;5135640;27;20498;-63
2022/12/24 10:20:42;;;;;;;2.23;1.00;;;12.00;58.10;;;;;;5133638;27;20972;-63
2022/12/24 10:23:23;;;;;;;3.60;1.23;;;12.00;58.80;;;;;;5132953;27;20528;-63
2022/12/24 10:25:59;;;;;;;2.93;1.20;;;11.90;58.40;;;;;;5134752;27;20476;-64
2022/12/24 10:28:32;;;;;;;2.60;1.20;;;11.80;58.30;;;;;;5134322;27;21317;-63
2022/12/24 10:31:03;;;;;;;2.73;1.27;;;11.70;59.00;;;;;;5135138;27;20969;-63
2022/12/24 10:33:37;;;;;;;7.30;3.53;;;11.80;59.60;;;;;;5135464;27;20444;-64
2022/12/24 10:36:11;;;;;;;3.97;1.73;;;11.80;59.60;;;;;;5133739;27;20461;-64
2022/12/24 10:38:38;;;;;;;3.00;1.03;;;11.70;59.50;;;;;;5133985;27;20465;-63
2022/12/24 10:41:07;;;;;;;4.70;1.00;;;11.70;59.30;;;;;;5134970;27;20495;-63
2022/12/24 10:43:38;;;;;;;2.50;0.90;;;11.80;59.80;;;;;;5134277;27;20540;-63
2022/12/24 10:46:10;;;;;;;6.93;2.47;;;11.80;59.80;;;;;;5134204;27;20441;-63
2022/12/24 10:48:42;;;;;;;2.10;1.10;;;11.70;59.40;;;;;;5134889;27;20449;-63
2022/12/24 10:51:18;;;;;;;2.20;1.10;;;11.70;59.80;;;;;;5134968;27;20528;-63
2022/12/24 10:53:49;;;;;;;2.13;1.03;;;11.80;60.20;;;;;;5134462;27;20937;-63
2022/12/24 10:56:18;;;;;;;4.43;2.50;;;11.70;59.80;;;;;;5130270;27;20988;-63
2022/12/24 10:58:52;;;;;;;2.80;1.10;;;11.70;60.10;;;;;;5131516;27;20442;-64
2022/12/24 11:01:19;;;;;;;1.80;0.90;;;11.70;60.80;;;;;;5134586;27;20487;-64
2022/12/24 11:03:59;;;;;;;2.83;0.90;;;11.70;61.00;;;;;;5132628;27;20524;-63
2022/12/24 11:06:28;;;;;;;2.17;1.30;;;11.60;61.20;;;;;;5133556;27;20919;-63
2022/12/24 11:09:13;;;;;;;1.80;0.80;;;11.60;61.90;;;;;;5132567;27;20437;-63
2022/12/24 11:11:40;;;;;;;2.10;0.90;;;11.50;62.20;;;;;;5133641;27;20505;-64
2022/12/24 11:14:16;;;;;;;7.37;4.00;;;11.60;62.90;;;;;;5133536;27;20438;-63
2022/12/24 11:16:50;;;;;;;2.63;1.23;;;11.60;63.10;;;;;;5131929;27;20501;-63
2022/12/24 11:19:25;;;;;;;5.37;3.80;;;11.60;63.20;;;;;;5134391;27;20968;-63
2022/12/24 11:22:02;;;;;;;4.03;2.30;;;11.50;63.50;;;;;;5133747;27;20436;-64
2022/12/24 11:24:31;;;;;;;4.00;2.43;;;11.50;63.60;;;;;;5134257;27;20441;-63
2022/12/24 11:27:24;;;;;;;11.13;6.90;;;11.50;64.20;;;;;;5133980;27;20434;-65
2022/12/24 11:29:51;;;;;;;28.20;14.30;;;11.50;64.30;;;;;;5133502;27;20426;-64
2022/12/24 11:32:21;;;;;;;7.23;3.53;;;11.50;64.00;;;;;;5130040;27;20534;-63
2022/12/24 11:34:49;;;;;;;7.13;3.97;;;11.60;64.70;;;;;;5131489;27;20473;-63
2022/12/24 11:37:21;;;;;;;6.57;3.70;;;11.60;65.10;;;;;;5132435;27;20469;-63
2022/12/24 11:39:51;;;;;;;3.77;2.00;;;11.70;65.20;;;;;;5129304;27;20429;-64
2022/12/24 11:42:35;;;;;;;4.53;2.53;;;11.70;65.00;;;;;;5133701;27;20429;-63
2022/12/24 11:45:14;;;;;;;7.30;2.00;;;11.90;65.30;;;;;;5130304;27;20498;-63
2022/12/24 11:47:41;;;;;;;6.13;3.20;;;11.90;65.40;;;;;;5133183;27;20440;-64
2022/12/24 11:50:25;;;;;;;1.80;0.90;;;12.00;65.10;;;;;;5129044;27;20441;-63
2022/12/24 11:53:00;;;;;;;3.63;2.30;;;12.00;64.90;;;;;;5133576;27;20432;-63
2022/12/24 11:55:39;;;;;;;3.40;1.90;;;12.10;64.70;;;;;;5130001;27;20910;-63
2022/12/24 11:58:24;;;;;;;2.70;1.37;;;12.00;63.20;;;;;;5132252;27;20465;-63
2022/12/24 12:00:57;;;;;;;4.00;1.90;;;12.00;64.00;;;;;;5132811;27;20443;-63
2022/12/24 12:03:30;;;;;;;4.57;2.97;;;12.10;64.10;;;;;;5130604;27;20453;-63
2022/12/24 12:06:03;;;;;;;2.73;1.33;;;12.10;64.00;;;;;;5134533;27;20429;-64
2022/12/24 12:08:33;;;;;;;2.10;1.00;;;11.90;64.10;;;;;;5135599;27;20911;-64
2022/12/24 12:11:03;;;;;;;2.77;1.00;;;12.00;65.00;;;;;;5134646;27;20482;-63
2022/12/24 12:13:32;;;;;;;5.73;3.70;;;12.00;65.10;;;;;;5135054;27;20468;-64
2022/12/24 12:16:12;;;;;;;3.83;2.63;;;12.00;65.00;;;;;;5135162;27;20524;-64
2022/12/24 12:18:45;;;;;;;2.77;1.53;;;12.00;65.20;;;;;;5135101;27;20525;-63
2022/12/24 12:21:16;;;;;;;5.63;3.30;;;12.00;64.50;;;;;;5135507;27;20437;-63
2022/12/24 12:23:49;;;;;;;3.37;1.20;;;12.00;65.10;;;;;;5135456;27;20464;-63
2022/12/24 12:26:22;;;;;;;4.27;2.10;;;12.10;65.50;;;;;;5135310;27;20818;-63
2022/12/24 12:28:53;;;;;;;1.97;0.80;;;12.10;65.20;;;;;;5134777;27;20505;-63
2022/12/24 12:31:26;;;;;;;2.80;1.63;;;12.10;65.60;;;;;;5134554;27;20467;-63
2022/12/24 12:33:59;;;;;;;4.10;2.43;;;12.10;65.60;;;;;;5135077;27;20437;-63
2022/12/24 12:36:32;;;;;;;7.20;4.80;;;12.10;64.60;;;;;;5134869;27;20882;-63
2022/12/24 12:39:00;;;;;;;2.47;1.50;;;12.10;65.40;;;;;;5134818;27;20512;-64
2022/12/24 12:41:43;;;;;;;6.40;3.70;;;12.10;65.80;;;;;;5134830;27;20536;-64
2022/12/24 12:44:41;;;;;;;6.97;4.03;;;12.10;65.60;;;;;;5135015;27;20482;-62
2022/12/24 12:47:24;;;;;;;6.20;2.40;;;12.00;66.10;;;;;;5134446;27;20473;-64
2022/12/24 12:50:03;;;;;;;4.47;2.13;;;12.00;65.90;;;;;;5134104;27;20473;-63
2022/12/24 12:52:55;;;;;;;3.50;2.27;;;11.80;66.30;;;;;;5134231;27;20516;-63
2022/12/24 12:55:36;;;;;;;3.33;1.97;;;11.80;66.90;;;;;;5134554;27;20503;-63
2022/12/24 12:58:09;;;;;;;2.57;1.33;;;11.80;67.30;;;;;;5134616;27;20523;-64
2022/12/24 13:00:39;;;;;;;2.90;1.20;;;11.60;67.70;;;;;;5134390;27;20440;-63
2022/12/24 13:03:34;;;;;;;2.17;1.07;;;11.40;68.40;;;;;;5134344;27;20520;-63
2022/12/24 13:06:27;;;;;;;2.63;1.17;;;11.30;69.20;;;;;;5134260;27;20434;-65
2022/12/24 13:09:21;;;;;;;1.60;0.80;;;11.20;70.10;;;;;;5134432;27;20459;-63
2022/12/24 13:12:17;;;;;;;2.30;0.83;;;11.10;70.90;;;;;;5134037;27;20463;-64